sensor_id;sensor_type;location;lat;lon;timestamp;pressure;altitude;pressure_sealevel;temperature;humidity
12360;BME280;6244;51.460;7.090;2023-05-25T00:02:19;101516.66;;;11.73;67.76
12360;BME280;6244;51.460;7.090;2023-05-25T00:07:19;101515.72;;;11.74;67.86
12360;BME280;6244;51.460;7.090;2023-05-25T00:12:16;101517.50;;;11.74;68.06
12360;BME280;6244;51.460;7.090;2023-05-25T00:17:12;101515.03;;;11.71;67.86
12360;BME280;6244;51.460;7.090;2023-05-25T00:22:09;101523.22;;;11.63;67.94
12360;BME280;6244;51.460;7.090;2023-05-25T00:27:07;101505.25;;;11.53;68.12
12360;BME280;6244;51.460;7.090;2023-05-25T00:32:05;101515.03;;;11.49;67.83
12360;BME280;6244;51.460;7.090;2023-05-25T00:37:01;101507.38;;;11.44;67.98
12360;BME280;6244;51.460;7.090;2023-05-25T00:41:59;101504.19;;;11.36;67.87
12360;BME280;6244;51.460;7.090;2023-05-25T00:46:59;101512.91;;;11.37;68.25
12360;BME280;6244;51.460;7.090;2023-05-25T00:51:56;101503.53;;;11.31;67.99
12360;BME280;6244;51.460;7.090;2023-05-25T00:56:55;101512.69;;;10.76;70.25
12360;BME280;6244;51.460;7.090;2023-05-25T01:01:53;101510.00;;;10.55;71.29
12360;BME280;6244;51.460;7.090;2023-05-25T01:06:52;101507.97;;;10.62;71.79
12360;BME280;6244;51.460;7.090;2023-05-25T01:11:49;101505.63;;;10.78;71.47
12360;BME280;6244;51.460;7.090;2023-05-25T01:16:47;101515.00;;;11.07;69.39
12360;BME280;6244;51.460;7.090;2023-05-25T01:21:50;101510.56;;;11.09;69.13
12360;BME280;6244;51.460;7.090;2023-05-25T01:26:54;101511.53;;;11.06;68.69
12360;BME280;6244;51.460;7.090;2023-05-25T01:31:51;101525.75;;;11.01;68.46
12360;BME280;6244;51.460;7.090;2023-05-25T01:36:50;101522.59;;;10.91;67.92
12360;BME280;6244;51.460;7.090;2023-05-25T01:41:47;101525.19;;;10.93;67.47
12360;BME280;6244;51.460;7.090;2023-05-25T01:46:43;101525.28;;;10.89;67.38
12360;BME280;6244;51.460;7.090;2023-05-25T01:51:47;101523.66;;;10.87;67.05
12360;BME280;6244;51.460;7.090;2023-05-25T01:56:51;101523.66;;;10.87;67.24
12360;BME280;6244;51.460;7.090;2023-05-25T02:01:50;101528.22;;;10.82;67.30
12360;BME280;6244;51.460;7.090;2023-05-25T02:06:50;101522.22;;;10.78;67.30
12360;BME280;6244;51.460;7.090;2023-05-25T02:11:47;101519.56;;;10.80;67.24
12360;BME280;6244;51.460;7.090;2023-05-25T02:16:45;101522.28;;;10.77;67.16
12360;BME280;6244;51.460;7.090;2023-05-25T02:21:42;101537.38;;;10.72;67.09
12360;BME280;6244;51.460;7.090;2023-05-25T02:26:39;101529.72;;;10.66;67.40
12360;BME280;6244;51.460;7.090;2023-05-25T02:31:35;101532.31;;;10.67;67.13
12360;BME280;6244;51.460;7.090;2023-05-25T02:36:34;101533.16;;;10.68;67.48
12360;BME280;6244;51.460;7.090;2023-05-25T02:41:31;101537.81;;;10.59;67.53
12360;BME280;6244;51.460;7.090;2023-05-25T02:46:27;101532.56;;;10.59;68.00
12360;BME280;6244;51.460;7.090;2023-05-25T02:51:24;101532.63;;;10.58;68.17
12360;BME280;6244;51.460;7.090;2023-05-25T02:56:22;101532.75;;;10.55;68.30
12360;BME280;6244;51.460;7.090;2023-05-25T03:01:18;101536.22;;;10.55;68.56
12360;BME280;6244;51.460;7.090;2023-05-25T03:06:15;101548.50;;;10.55;68.28
12360;BME280;6244;51.460;7.090;2023-05-25T03:11:11;101544.09;;;10.55;68.49
12360;BME280;6244;51.460;7.090;2023-05-25T03:16:09;101547.06;;;10.46;69.69
12360;BME280;6244;51.460;7.090;2023-05-25T03:21:06;101550.09;;;10.59;69.34
12360;BME280;6244;51.460;7.090;2023-05-25T03:26:03;101544.44;;;10.46;69.81
12360;BME280;6244;51.460;7.090;2023-05-25T03:30:59;101553.97;;;10.49;69.59
12360;BME280;6244;51.460;7.090;2023-05-25T03:35:58;101556.47;;;10.52;68.37
12360;BME280;6244;51.460;7.090;2023-05-25T03:40:54;101559.31;;;10.46;68.29
12360;BME280;6244;51.460;7.090;2023-05-25T03:45:51;101557.72;;;10.42;68.24
12360;BME280;6244;51.460;7.090;2023-05-25T03:50:48;101563.78;;;10.44;68.15
12360;BME280;6244;51.460;7.090;2023-05-25T03:55:46;101584.00;;;10.40;68.21
12360;BME280;6244;51.460;7.090;2023-05-25T04:00:46;101587.81;;;10.32;68.44
12360;BME280;6244;51.460;7.090;2023-05-25T04:05:44;101592.03;;;10.36;68.19
12360;BME280;6244;51.460;7.090;2023-05-25T04:10:40;101595.56;;;10.35;68.30
12360;BME280;6244;51.460;7.090;2023-05-25T04:15:38;101609.44;;;10.38;68.25
12360;BME280;6244;51.460;7.090;2023-05-25T04:20:35;101623.31;;;10.42;68.33
12360;BME280;6244;51.460;7.090;2023-05-25T04:25:32;101607.59;;;10.40;68.52
12360;BME280;6244;51.460;7.090;2023-05-25T04:30:28;101610.16;;;10.43;68.69
12360;BME280;6244;51.460;7.090;2023-05-25T04:35:27;101613.72;;;10.41;69.06
12360;BME280;6244;51.460;7.090;2023-05-25T04:40:23;101607.72;;;10.37;69.93
12360;BME280;6244;51.460;7.090;2023-05-25T04:45:22;101608.44;;;10.42;70.44
12360;BME280;6244;51.460;7.090;2023-05-25T04:50:18;101607.47;;;10.45;71.01
12360;BME280;6244;51.460;7.090;2023-05-25T04:55:16;101621.31;;;10.48;71.56
12360;BME280;6244;51.460;7.090;2023-05-25T05:00:14;101625.53;;;10.52;71.63
12360;BME280;6244;51.460;7.090;2023-05-25T05:05:10;101632.41;;;10.56;72.14
12360;BME280;6244;51.460;7.090;2023-05-25T05:10:07;101635.59;;;10.65;72.42
12360;BME280;6244;51.460;7.090;2023-05-25T05:15:06;101640.66;;;10.71;72.79
12360;BME280;6244;51.460;7.090;2023-05-25T05:20:03;101648.53;;;10.71;72.97
12360;BME280;6244;51.460;7.090;2023-05-25T05:25:03;101651.66;;;10.57;73.78
12360;BME280;6244;51.460;7.090;2023-05-25T05:29:59;101665.47;;;10.62;74.66
12360;BME280;6244;51.460;7.090;2023-05-25T05:34:57;101677.19;;;10.77;73.95
12360;BME280;6244;51.460;7.090;2023-05-25T05:39:54;101681.06;;;10.67;73.82
12360;BME280;6244;51.460;7.090;2023-05-25T05:44:50;101683.28;;;10.77;73.44
12360;BME280;6244;51.460;7.090;2023-05-25T05:49:47;101687.25;;;10.64;74.08
12360;BME280;6244;51.460;7.090;2023-05-25T05:54:45;101691.06;;;10.55;74.70
12360;BME280;6244;51.460;7.090;2023-05-25T05:59:41;101698.22;;;10.50;75.48
12360;BME280;6244;51.460;7.090;2023-05-25T06:04:39;101687.97;;;10.69;74.55
12360;BME280;6244;51.460;7.090;2023-05-25T06:09:35;101697.00;;;10.61;74.80
12360;BME280;6244;51.460;7.090;2023-05-25T06:14:33;101683.88;;;10.61;75.33
12360;BME280;6244;51.460;7.090;2023-05-25T06:19:30;101694.81;;;10.73;75.96
12360;BME280;6244;51.460;7.090;2023-05-25T06:24:26;101687.25;;;10.89;75.62
12360;BME280;6244;51.460;7.090;2023-05-25T06:29:23;101697.22;;;11.04;75.59
12360;BME280;6244;51.460;7.090;2023-05-25T06:34:24;101699.66;;;11.09;73.98
12360;BME280;6244;51.460;7.090;2023-05-25T06:39:20;101711.94;;;11.08;74.40
12360;BME280;6244;51.460;7.090;2023-05-25T06:44:17;101712.28;;;11.23;74.40
12360;BME280;6244;51.460;7.090;2023-05-25T06:49:14;101725.03;;;11.33;73.62
12360;BME280;6244;51.460;7.090;2023-05-25T06:54:11;101723.00;;;11.41;72.67
12360;BME280;6244;51.460;7.090;2023-05-25T06:59:09;101720.19;;;11.46;73.13
12360;BME280;6244;51.460;7.090;2023-05-25T07:04:05;101720.09;;;11.71;73.05
12360;BME280;6244;51.460;7.090;2023-05-25T07:09:02;101720.75;;;11.99;71.55
12360;BME280;6244;51.460;7.090;2023-05-25T07:14:00;101729.88;;;12.13;71.03
12360;BME280;6244;51.460;7.090;2023-05-25T07:18:56;101728.44;;;12.26;70.70
12360;BME280;6244;51.460;7.090;2023-05-25T07:23:53;101725.13;;;12.43;68.87
12360;BME280;6244;51.460;7.090;2023-05-25T07:28:50;101726.81;;;12.66;68.90
12360;BME280;6244;51.460;7.090;2023-05-25T07:33:48;101726.56;;;13.11;67.52
12360;BME280;6244;51.460;7.090;2023-05-25T07:38:45;101726.72;;;13.28;65.23
12360;BME280;6244;51.460;7.090;2023-05-25T07:43:42;101743.25;;;13.32;65.62
12360;BME280;6244;51.460;7.090;2023-05-25T07:48:38;101735.34;;;13.50;65.47
12360;BME280;6244;51.460;7.090;2023-05-25T07:53:36;101740.16;;;13.22;65.08
12360;BME280;6244;51.460;7.090;2023-05-25T07:58:33;101750.47;;;13.27;65.24
12360;BME280;6244;51.460;7.090;2023-05-25T08:03:29;101749.81;;;13.42;66.36
12360;BME280;6244;51.460;7.090;2023-05-25T08:08:26;101755.22;;;13.76;64.09
12360;BME280;6244;51.460;7.090;2023-05-25T08:13:23;101754.22;;;13.60;63.66
12360;BME280;6244;51.460;7.090;2023-05-25T08:18:20;101753.22;;;13.63;64.12
12360;BME280;6244;51.460;7.090;2023-05-25T08:23:16;101753.38;;;13.60;64.02
12360;BME280;6244;51.460;7.090;2023-05-25T08:28:13;101754.59;;;13.71;64.39
12360;BME280;6244;51.460;7.090;2023-05-25T08:33:11;101762.09;;;13.80;63.61
12360;BME280;6244;51.460;7.090;2023-05-25T08:38:07;101759.00;;;13.71;62.96
12360;BME280;6244;51.460;7.090;2023-05-25T08:43:04;101771.03;;;13.76;63.02
12360;BME280;6244;51.460;7.090;2023-05-25T08:48:03;101770.28;;;13.93;62.87
12360;BME280;6244;51.460;7.090;2023-05-25T08:53:07;101770.75;;;14.01;61.50
12360;BME280;6244;51.460;7.090;2023-05-25T08:58:09;101776.75;;;13.86;62.62
12360;BME280;6244;51.460;7.090;2023-05-25T09:03:10;101777.69;;;14.04;63.10
12360;BME280;6244;51.460;7.090;2023-05-25T09:08:10;101779.28;;;14.25;62.10
12360;BME280;6244;51.460;7.090;2023-05-25T09:13:07;101775.69;;;14.09;62.17
12360;BME280;6244;51.460;7.090;2023-05-25T09:18:03;101786.50;;;14.22;62.08
12360;BME280;6244;51.460;7.090;2023-05-25T09:23:00;101787.59;;;14.18;61.07
12360;BME280;6244;51.460;7.090;2023-05-25T09:27:58;101792.75;;;14.74;59.93
12360;BME280;6244;51.460;7.090;2023-05-25T09:32:55;101779.91;;;15.18;58.99
12360;BME280;6244;51.460;7.090;2023-05-25T09:38:04;101796.00;;;14.96;58.66
12360;BME280;6244;51.460;7.090;2023-05-25T09:43:02;101802.31;;;14.77;59.66
12360;BME280;6244;51.460;7.090;2023-05-25T09:47:59;101806.81;;;14.75;58.91
12360;BME280;6244;51.460;7.090;2023-05-25T09:52:58;101806.31;;;14.49;59.38
12360;BME280;6244;51.460;7.090;2023-05-25T09:57:55;101800.91;;;14.87;58.47
12360;BME280;6244;51.460;7.090;2023-05-25T10:02:53;101816.78;;;14.51;59.29
12360;BME280;6244;51.460;7.090;2023-05-25T10:07:50;101825.16;;;14.23;60.72
12360;BME280;6244;51.460;7.090;2023-05-25T10:12:54;101820.47;;;14.10;61.09
12360;BME280;6244;51.460;7.090;2023-05-25T10:17:53;101821.06;;;13.79;61.65
12360;BME280;6244;51.460;7.090;2023-05-25T10:22:52;101822.06;;;13.96;62.65
12360;BME280;6244;51.460;7.090;2023-05-25T10:27:56;101815.84;;;14.16;61.71
12360;BME280;6244;51.460;7.090;2023-05-25T10:32:55;101818.19;;;14.22;61.97
12360;BME280;6244;51.460;7.090;2023-05-25T10:37:52;101818.56;;;14.14;62.44
12360;BME280;6244;51.460;7.090;2023-05-25T10:42:49;101823.75;;;14.53;62.49
12360;BME280;6244;51.460;7.090;2023-05-25T10:47:46;101821.22;;;15.04;61.36
12360;BME280;6244;51.460;7.090;2023-05-25T10:52:56;101820.50;;;15.00;59.81
12360;BME280;6244;51.460;7.090;2023-05-25T10:58:06;101821.88;;;14.73;59.59
12360;BME280;6244;51.460;7.090;2023-05-25T11:03:03;101812.09;;;14.57;60.48
12360;BME280;6244;51.460;7.090;2023-05-25T11:08:02;101811.47;;;14.33;60.85
12360;BME280;6244;51.460;7.090;2023-05-25T11:13:20;101814.69;;;14.21;62.39
12360;BME280;6244;51.460;7.090;2023-05-25T11:18:16;101817.00;;;14.65;62.26
12360;BME280;6244;51.460;7.090;2023-05-25T11:23:22;101810.78;;;15.01;59.74
12360;BME280;6244;51.460;7.090;2023-05-25T11:28:21;101798.16;;;15.40;59.60
12360;BME280;6244;51.460;7.090;2023-05-25T11:33:19;101797.50;;;15.52;58.92
12360;BME280;6244;51.460;7.090;2023-05-25T11:38:16;101794.50;;;15.76;58.16
12360;BME280;6244;51.460;7.090;2023-05-25T11:43:14;101786.16;;;15.50;57.31
12360;BME280;6244;51.460;7.090;2023-05-25T11:48:12;101785.13;;;15.36;57.45
12360;BME280;6244;51.460;7.090;2023-05-25T11:53:10;101775.78;;;15.13;57.96
12360;BME280;6244;51.460;7.090;2023-05-25T11:58:06;101774.91;;;15.30;58.46
12360;BME280;6244;51.460;7.090;2023-05-25T12:03:04;101772.34;;;15.28;58.34
12360;BME280;6244;51.460;7.090;2023-05-25T12:08:01;101776.31;;;15.19;58.75
12360;BME280;6244;51.460;7.090;2023-05-25T12:13:00;101783.50;;;14.83;58.73
12360;BME280;6244;51.460;7.090;2023-05-25T12:17:58;101782.31;;;15.06;58.56
12360;BME280;6244;51.460;7.090;2023-05-25T12:22:56;101771.06;;;15.35;58.45
12360;BME280;6244;51.460;7.090;2023-05-25T12:28:08;101757.50;;;15.25;59.91
12360;BME280;6244;51.460;7.090;2023-05-25T12:33:05;101765.94;;;15.32;57.81
12360;BME280;6244;51.460;7.090;2023-05-25T12:38:09;101750.19;;;15.64;56.42
12360;BME280;6244;51.460;7.090;2023-05-25T12:43:06;101755.38;;;16.12;55.69
12360;BME280;6244;51.460;7.090;2023-05-25T12:48:03;101751.09;;;16.10;55.87
12360;BME280;6244;51.460;7.090;2023-05-25T12:53:00;101755.03;;;16.03;56.99
12360;BME280;6244;51.460;7.090;2023-05-25T12:58:00;101743.31;;;16.38;57.26
12360;BME280;6244;51.460;7.090;2023-05-25T13:02:57;101735.41;;;16.37;54.50
12360;BME280;6244;51.460;7.090;2023-05-25T13:07:55;101744.81;;;16.12;56.34
12360;BME280;6244;51.460;7.090;2023-05-25T13:12:52;101753.09;;;15.91;56.23
12360;BME280;6244;51.460;7.090;2023-05-25T13:17:53;101739.22;;;16.17;57.64
12360;BME280;6244;51.460;7.090;2023-05-25T13:22:51;101735.34;;;16.38;57.15
12360;BME280;6244;51.460;7.090;2023-05-25T13:27:50;101729.88;;;16.71;54.23
12360;BME280;6244;51.460;7.090;2023-05-25T13:32:47;101721.13;;;16.99;56.36
12360;BME280;6244;51.460;7.090;2023-05-25T13:37:45;101714.28;;;16.95;54.33
12360;BME280;6244;51.460;7.090;2023-05-25T13:42:41;101716.38;;;16.76;55.29
12360;BME280;6244;51.460;7.090;2023-05-25T13:47:38;101713.34;;;16.52;54.15
12360;BME280;6244;51.460;7.090;2023-05-25T13:52:37;101710.31;;;16.58;55.49
12360;BME280;6244;51.460;7.090;2023-05-25T13:57:35;101704.53;;;16.96;54.96
12360;BME280;6244;51.460;7.090;2023-05-25T14:02:31;101696.22;;;16.88;53.05
12360;BME280;6244;51.460;7.090;2023-05-25T14:07:29;101698.81;;;17.59;53.56
12360;BME280;6244;51.460;7.090;2023-05-25T14:12:26;101701.13;;;17.22;52.88
12360;BME280;6244;51.460;7.090;2023-05-25T14:17:24;101694.38;;;16.74;53.75
12360;BME280;6244;51.460;7.090;2023-05-25T14:22:21;101697.53;;;17.09;54.52
12360;BME280;6244;51.460;7.090;2023-05-25T14:27:17;101688.16;;;17.03;52.60
12360;BME280;6244;51.460;7.090;2023-05-25T14:32:15;101673.66;;;17.38;51.77
12360;BME280;6244;51.460;7.090;2023-05-25T14:37:13;101684.53;;;17.33;51.77
12360;BME280;6244;51.460;7.090;2023-05-25T14:42:10;101685.78;;;16.99;53.03
12360;BME280;6244;51.460;7.090;2023-05-25T14:47:06;101674.31;;;16.98;54.70
12360;BME280;6244;51.460;7.090;2023-05-25T14:52:03;101677.75;;;17.00;53.84
12360;BME280;6244;51.460;7.090;2023-05-25T14:57:01;101682.47;;;17.38;51.94
12360;BME280;6244;51.460;7.090;2023-05-25T15:01:57;101670.00;;;17.94;50.56
12360;BME280;6244;51.460;7.090;2023-05-25T15:06:54;101666.94;;;17.73;49.68
12360;BME280;6244;51.460;7.090;2023-05-25T15:11:50;101679.91;;;17.22;52.69
12360;BME280;6244;51.460;7.090;2023-05-25T15:16:48;101682.00;;;16.75;54.16
12360;BME280;6244;51.460;7.090;2023-05-25T15:21:45;101681.06;;;16.76;53.15
12360;BME280;6244;51.460;7.090;2023-05-25T15:26:41;101672.00;;;16.64;54.02
12360;BME280;6244;51.460;7.090;2023-05-25T15:31:38;101668.66;;;16.90;52.44
12360;BME280;6244;51.460;7.090;2023-05-25T15:36:36;101668.38;;;16.81;52.78
12360;BME280;6244;51.460;7.090;2023-05-25T15:41:32;101653.69;;;17.03;52.40
12360;BME280;6244;51.460;7.090;2023-05-25T15:46:29;101650.41;;;17.00;53.15
12360;BME280;6244;51.460;7.090;2023-05-25T15:51:25;101643.09;;;17.03;52.26
12360;BME280;6244;51.460;7.090;2023-05-25T15:56:23;101643.44;;;17.26;52.04
12360;BME280;6244;51.460;7.090;2023-05-25T16:01:20;101656.81;;;16.82;50.73
12360;BME280;6244;51.460;7.090;2023-05-25T16:06:17;101656.47;;;16.58;52.23
12360;BME280;6244;51.460;7.090;2023-05-25T16:11:13;101644.47;;;16.66;53.21
12360;BME280;6244;51.460;7.090;2023-05-25T16:16:11;101647.63;;;16.73;52.60
12360;BME280;6244;51.460;7.090;2023-05-25T16:21:07;101641.09;;;16.79;51.14
12360;BME280;6244;51.460;7.090;2023-05-25T16:26:04;101638.34;;;16.80;51.97
12360;BME280;6244;51.460;7.090;2023-05-25T16:31:03;101638.16;;;16.97;52.93
12360;BME280;6244;51.460;7.090;2023-05-25T16:36:01;101645.84;;;17.02;51.31
12360;BME280;6244;51.460;7.090;2023-05-25T16:40:58;101646.50;;;16.77;52.91
12360;BME280;6244;51.460;7.090;2023-05-25T16:45:54;101647.47;;;16.60;53.30
12360;BME280;6244;51.460;7.090;2023-05-25T16:50:51;101646.72;;;16.58;54.02
12360;BME280;6244;51.460;7.090;2023-05-25T16:55:49;101640.66;;;16.42;54.09
12360;BME280;6244;51.460;7.090;2023-05-25T17:00:46;101642.94;;;16.18;55.47
12360;BME280;6244;51.460;7.090;2023-05-25T17:05:42;101646.41;;;16.04;54.21
12360;BME280;6244;51.460;7.090;2023-05-25T17:10:39;101643.00;;;16.02;53.21
12360;BME280;6244;51.460;7.090;2023-05-25T17:15:37;101641.63;;;15.95;54.03
12360;BME280;6244;51.460;7.090;2023-05-25T17:20:34;101639.19;;;15.92;54.08
12360;BME280;6244;51.460;7.090;2023-05-25T17:25:30;101647.03;;;15.94;54.17
12360;BME280;6244;51.460;7.090;2023-05-25T17:30:27;101637.81;;;16.01;54.08
12360;BME280;6244;51.460;7.090;2023-05-25T17:35:25;101636.53;;;15.92;54.97
12360;BME280;6244;51.460;7.090;2023-05-25T17:40:21;101636.28;;;15.81;56.06
12360;BME280;6244;51.460;7.090;2023-05-25T17:45:18;101638.59;;;15.71;55.19
12360;BME280;6244;51.460;7.090;2023-05-25T17:50:14;101640.84;;;15.63;55.00
12360;BME280;6244;51.460;7.090;2023-05-25T17:55:12;101643.22;;;15.52;54.92
12360;BME280;6244;51.460;7.090;2023-05-25T18:00:10;101644.47;;;15.45;55.88
12360;BME280;6244;51.460;7.090;2023-05-25T18:05:07;101641.06;;;15.43;55.46
12360;BME280;6244;51.460;7.090;2023-05-25T18:10:04;101641.47;;;15.35;55.51
12360;BME280;6244;51.460;7.090;2023-05-25T18:15:03;101641.75;;;15.31;56.19
12360;BME280;6244;51.460;7.090;2023-05-25T18:19:59;101640.72;;;15.17;57.39
12360;BME280;6244;51.460;7.090;2023-05-25T18:24:56;101645.47;;;15.11;57.63
12360;BME280;6244;51.460;7.090;2023-05-25T18:29:52;101645.72;;;15.06;57.20
12360;BME280;6244;51.460;7.090;2023-05-25T18:34:50;101653.19;;;14.98;57.58
12360;BME280;6244;51.460;7.090;2023-05-25T18:39:47;101642.28;;;14.88;58.54
12360;BME280;6244;51.460;7.090;2023-05-25T18:44:43;101647.56;;;14.88;58.53
12360;BME280;6244;51.460;7.090;2023-05-25T18:49:40;101647.19;;;14.79;58.60
12360;BME280;6244;51.460;7.090;2023-05-25T18:54:38;101645.41;;;14.79;58.38
12360;BME280;6244;51.460;7.090;2023-05-25T18:59:34;101642.22;;;14.73;59.03
12360;BME280;6244;51.460;7.090;2023-05-25T19:04:31;101653.22;;;14.65;60.02
12360;BME280;6244;51.460;7.090;2023-05-25T19:09:27;101654.53;;;14.56;59.51
12360;BME280;6244;51.460;7.090;2023-05-25T19:14:25;101652.53;;;14.44;60.17
12360;BME280;6244;51.460;7.090;2023-05-25T19:19:22;101661.50;;;14.40;61.83
12360;BME280;6244;51.460;7.090;2023-05-25T19:24:18;101663.00;;;14.28;62.92
12360;BME280;6244;51.460;7.090;2023-05-25T19:29:15;101664.47;;;14.17;63.43
12360;BME280;6244;51.460;7.090;2023-05-25T19:34:13;101669.16;;;14.10;63.49
12360;BME280;6244;51.460;7.090;2023-05-25T19:39:09;101678.78;;;14.11;64.04
12360;BME280;6244;51.460;7.090;2023-05-25T19:44:06;101677.31;;;14.05;63.92
12360;BME280;6244;51.460;7.090;2023-05-25T19:49:04;101679.41;;;13.99;64.28
12360;BME280;6244;51.460;7.090;2023-05-25T19:54:02;101686.78;;;13.92;64.04
12360;BME280;6244;51.460;7.090;2023-05-25T19:58:59;101691.13;;;13.93;64.10
12360;BME280;6244;51.460;7.090;2023-05-25T20:03:55;101683.47;;;13.87;64.43
12360;BME280;6244;51.460;7.090;2023-05-25T20:08:52;101697.84;;;13.81;64.83
12360;BME280;6244;51.460;7.090;2023-05-25T20:13:50;101694.50;;;13.78;64.76
12360;BME280;6244;51.460;7.090;2023-05-25T20:18:49;101696.47;;;13.73;64.94
12360;BME280;6244;51.460;7.090;2023-05-25T20:23:45;101693.16;;;13.69;65.01
12360;BME280;6244;51.460;7.090;2023-05-25T20:28:42;101695.94;;;13.66;64.93
12360;BME280;6244;51.460;7.090;2023-05-25T20:33:40;101693.50;;;13.62;64.87
12360;BME280;6244;51.460;7.090;2023-05-25T20:38:36;101692.09;;;13.55;64.62
12360;BME280;6244;51.460;7.090;2023-05-25T20:43:33;101702.91;;;13.48;64.96
12360;BME280;6244;51.460;7.090;2023-05-25T20:48:29;101701.28;;;13.46;64.66
12360;BME280;6244;51.460;7.090;2023-05-25T20:53:27;101707.03;;;13.35;64.39
12360;BME280;6244;51.460;7.090;2023-05-25T20:58:24;101718.03;;;13.06;64.71
12360;BME280;6244;51.460;7.090;2023-05-25T21:03:20;101722.22;;;13.10;64.61
12360;BME280;6244;51.460;7.090;2023-05-25T21:08:17;101731.91;;;13.09;64.27
12360;BME280;6244;51.460;7.090;2023-05-25T21:13:15;101737.69;;;13.17;63.78
12360;BME280;6244;51.460;7.090;2023-05-25T21:18:12;101739.44;;;13.18;63.33
12360;BME280;6244;51.460;7.090;2023-05-25T21:23:09;101740.00;;;13.25;63.41
12360;BME280;6244;51.460;7.090;2023-05-25T21:28:05;101749.00;;;13.21;63.47
12360;BME280;6244;51.460;7.090;2023-05-25T21:33:10;101745.88;;;13.11;62.64
12360;BME280;6244;51.460;7.090;2023-05-25T21:38:07;101756.94;;;12.99;62.83
12360;BME280;6244;51.460;7.090;2023-05-25T21:43:03;101751.22;;;12.89;63.37
12360;BME280;6244;51.460;7.090;2023-05-25T21:48:02;101756.75;;;12.83;62.93
12360;BME280;6244;51.460;7.090;2023-05-25T21:53:00;101762.34;;;12.76;62.79
12360;BME280;6244;51.460;7.090;2023-05-25T21:57:56;101761.75;;;12.69;62.70
12360;BME280;6244;51.460;7.090;2023-05-25T22:02:53;101772.66;;;12.60;63.03
12360;BME280;6244;51.460;7.090;2023-05-25T22:07:49;101776.16;;;12.60;62.72
12360;BME280;6244;51.460;7.090;2023-05-25T22:12:47;101772.81;;;12.57;62.60
12360;BME280;6244;51.460;7.090;2023-05-25T22:17:44;101772.25;;;12.49;62.60
12360;BME280;6244;51.460;7.090;2023-05-25T22:22:40;101782.78;;;12.49;62.56
12360;BME280;6244;51.460;7.090;2023-05-25T22:27:37;101776.06;;;12.42;62.54
12360;BME280;6244;51.460;7.090;2023-05-25T22:32:35;101784.34;;;12.32;62.31
12360;BME280;6244;51.460;7.090;2023-05-25T22:37:31;101787.16;;;12.28;62.76
12360;BME280;6244;51.460;7.090;2023-05-25T22:42:28;101783.66;;;12.27;62.83
12360;BME280;6244;51.460;7.090;2023-05-25T22:47:24;101794.44;;;12.43;62.64
12360;BME280;6244;51.460;7.090;2023-05-25T22:52:22;101797.22;;;12.39;62.75
12360;BME280;6244;51.460;7.090;2023-05-25T22:57:19;101809.25;;;12.46;62.62
12360;BME280;6244;51.460;7.090;2023-05-25T23:02:15;101811.16;;;12.42;62.88
12360;BME280;6244;51.460;7.090;2023-05-25T23:07:12;101805.09;;;12.18;62.81
12360;BME280;6244;51.460;7.090;2023-05-25T23:12:10;101814.34;;;12.28;62.49
12360;BME280;6244;51.460;7.090;2023-05-25T23:17:06;101810.44;;;12.15;62.83
12360;BME280;6244;51.460;7.090;2023-05-25T23:22:03;101818.34;;;12.15;62.63
12360;BME280;6244;51.460;7.090;2023-05-25T23:26:59;101820.56;;;12.04;62.68
12360;BME280;6244;51.460;7.090;2023-05-25T23:31:58;101810.44;;;11.93;63.15
12360;BME280;6244;51.460;7.090;2023-05-25T23:36:54;101816.69;;;11.91;63.40
12360;BME280;6244;51.460;7.090;2023-05-25T23:41:52;101815.75;;;11.92;62.98
12360;BME280;6244;51.460;7.090;2023-05-25T23:46:49;101825.44;;;11.91;63.56
12360;BME280;6244;51.460;7.090;2023-05-25T23:51:47;101820.44;;;11.84;62.88
12360;BME280;6244;51.460;7.090;2023-05-25T23:56:43;101827.66;;;11.77;63.28
